Time;durP1;ratioP1;P1;durP2;ratioP2;P2;SDS_P1;SDS_P2;PMS_P1;PMS_P2;Temp;Humidity;BMP_temperature;BMP_pressure;BME280_temperature;BME280_humidity;BME280_pressure;Samples;Min_cycle;Max_cycle;Signal;HPM_P1;HPM_P2
2022/08/08 00:02:14;;;;;;;;;;;;;;;17.50;100.00;99812.93;1717010;83;20422;-73
2022/08/08 00:05:04;;;;;;;;;;;;;;;17.43;100.00;99819.67;1717131;83;20199;-74
2022/08/08 00:07:51;;;;;;;;;;;;;;;17.40;100.00;99821.77;1717882;82;20084;-73
2022/08/08 00:10:47;;;;;;;;;;;;;;;17.39;100.00;99823.73;1709181;82;21119;-74
2022/08/08 00:13:21;;;;;;;;;;;;;;;17.40;100.00;99820.38;1694830;83;20141;-72
2022/08/08 00:16:06;;;;;;;;;;;;;;;17.40;100.00;99820.38;1688217;85;20122;-73
2022/08/08 00:18:39;;;;;;;;;;;;;;;17.40;100.00;99821.77;1689100;84;20202;-72
2022/08/08 00:21:12;;;;;;;;;;;;;;;17.40;100.00;99824.55;1689321;85;20134;-72
2022/08/08 00:23:44;;;;;;;;;;;;;;;17.39;100.00;99822.35;1670561;85;21228;-72
2022/08/08 00:26:13;;;;;;;;;;;;;;;17.42;100.00;99823.61;1689190;84;20086;-72
2022/08/08 00:28:47;;;;;;;;;;;;;;;17.43;100.00;99827.42;1688736;84;20085;-73
2022/08/08 00:31:23;;;;;;;;;;;;;;;17.43;100.00;99824.64;1688183;84;20090;-73
2022/08/08 00:35:09;;;;;;;;;;;;;;;17.39;100.00;99825.13;1693080;84;20133;-72
2022/08/08 00:36:27;;;;;;;;;;;;;;;17.35;100.00;99827.58;1686786;85;21689;-73
2022/08/08 00:39:04;;;;;;;;;;;;;;;17.32;100.00;99823.57;1688794;85;20468;-72
2022/08/08 00:41:50;;;;;;;;;;;;;;;17.29;100.00;99827.05;1689416;85;20101;-72
2022/08/08 00:44:53;;;;;;;;;;;;;;;17.27;100.00;99817.47;1689038;83;20828;-73
2022/08/08 00:47:42;;;;;;;;;;;;;;;17.25;100.00;99817.82;1689179;83;20441;-73
2022/08/08 00:50:12;;;;;;;;;;;;;;;17.25;100.00;99819.79;1677254;85;22064;-74
2022/08/08 00:52:54;;;;;;;;;;;;;;;17.25;100.00;99815.63;1689275;84;20615;-73
2022/08/08 00:55:40;;;;;;;;;;;;;;;17.25;100.00;99810.08;1681761;84;20111;-72
2022/08/08 00:58:25;;;;;;;;;;;;;;;17.24;100.00;99810.66;1713122;84;20121;-73
2022/08/08 01:01:18;;;;;;;;;;;;;;;17.25;100.00;99805.92;1713176;84;20097;-73
2022/08/08 01:04:23;;;;;;;;;;;;;;;17.26;100.00;99811.69;1712750;83;21258;-73
2022/08/08 01:07:12;;;;;;;;;;;;;;;17.22;100.00;99811.59;1712620;83;20090;-73
2022/08/08 01:10:02;;;;;;;;;;;;;;;17.19;100.00;99811.49;1713243;83;20117;-72
2022/08/08 01:13:02;;;;;;;;;;;;;;;17.15;100.00;99811.39;1713165;83;20093;-72
2022/08/08 01:16:07;;;;;;;;;;;;;;;17.14;100.00;99806.42;1714104;83;20150;-73
2022/08/08 01:18:47;;;;;;;;;;;;;;;17.16;100.00;99815.20;1712537;83;21102;-73
2022/08/08 01:21:36;;;;;;;;;;;;;;;17.15;100.00;99810.81;1684794;82;20119;-73
2022/08/08 01:24:29;;;;;;;;;;;;;;;17.12;100.00;99811.52;1703062;82;32573;-73
2022/08/08 01:27:08;;;;;;;;;;;;;;;17.07;100.00;99812.34;1717024;82;20222;-73
2022/08/08 01:29:46;;;;;;;;;;;;;;;17.03;100.00;99812.24;1674900;84;20117;-73
2022/08/08 01:32:50;;;;;;;;;;;;;;;16.98;100.00;99808.91;1709618;83;20307;-73
2022/08/08 01:35:42;;;;;;;;;;;;;;;17.00;100.00;99810.75;1690026;84;20432;-73
2022/08/08 01:38:42;;;;;;;;;;;;;;;17.01;100.00;99814.56;1713488;83;20093;-73
2022/08/08 01:41:41;;;;;;;;;;;;;;;17.03;100.00;99815.02;1694668;83;20109;-73
2022/08/08 01:44:36;;;;;;;;;;;;;;;17.05;100.00;99818.25;1713144;84;20085;-73
2022/08/08 01:47:22;;;;;;;;;;;;;;;17.06;100.00;99812.92;1690552;84;20090;-73
2022/08/08 01:50:10;;;;;;;;;;;;;;;17.08;100.00;99816.73;1713094;83;20085;-72
2022/08/08 01:52:48;;;;;;;;;;;;;;;17.03;100.00;99820.56;1713167;83;20129;-73
2022/08/08 01:55:27;;;;;;;;;;;;;;;17.03;100.00;99820.56;1709730;83;20188;-73
2022/08/08 01:58:08;;;;;;;;;;;;;;;17.05;100.00;99815.47;1704342;83;20440;-73
2022/08/08 02:01:14;;;;;;;;;;;;;;;17.03;100.00;99816.41;1704210;84;20783;-73
2022/08/08 02:04:12;;;;;;;;;;;;;;;17.02;100.00;99816.75;1704099;84;20120;-73
2022/08/08 02:07:07;;;;;;;;;;;;;;;17.01;100.00;99827.05;1704769;84;20097;-73
2022/08/08 02:10:03;;;;;;;;;;;;;;;17.01;100.00;99822.08;1703108;84;20440;-73
2022/08/08 02:12:39;;;;;;;;;;;;;;;17.03;100.00;99822.53;1704524;83;20476;-74
2022/08/08 02:15:28;;;;;;;;;;;;;;;17.04;100.00;99819.98;1685725;84;20101;-71
2022/08/08 02:18:07;;;;;;;;;;;;;;;17.03;100.00;99808.66;1704605;84;20085;-72
2022/08/08 02:22:30;;;;;;;;;;;;;;;17.01;100.00;99813.17;1685928;84;20085;-73
2022/08/08 02:23:26;;;;;;;;;;;;;;;16.97;100.00;99805.33;1701774;84;20132;-73
2022/08/08 02:26:06;;;;;;;;;;;;;;;16.95;100.00;99812.39;1704500;84;20130;-73
2022/08/08 02:28:57;;;;;;;;;;;;;;;16.94;100.00;99807.42;1685983;84;20150;-73
2022/08/08 02:31:30;;;;;;;;;;;;;;;16.94;100.00;99806.03;1704119;83;20121;-73
2022/08/08 02:34:06;;;;;;;;;;;;;;;16.95;100.00;99812.39;1704697;84;20085;-73
2022/08/08 02:36:49;;;;;;;;;;;;;;;16.93;100.00;99810.55;1704102;84;20121;-73
2022/08/08 02:39:52;;;;;;;;;;;;;;;16.92;100.00;99808.35;1704021;84;20073;-73
2022/08/08 02:42:45;;;;;;;;;;;;;;;16.90;100.00;99810.66;1722448;82;20147;-74
2022/08/08 02:45:29;;;;;;;;;;;;;;;16.90;100.00;99811.25;1736947;82;20106;-73
2022/08/08 02:48:02;;;;;;;;;;;;;;;16.94;100.00;99817.13;1711797;82;20118;-73
2022/08/08 02:51:15;;;;;;;;;;;;;;;17.01;100.00;99817.33;1736193;82;20151;-73
2022/08/08 02:53:44;;;;;;;;;;;;;;;17.10;100.00;99819.38;1733460;82;20087;-73
2022/08/08 02:56:29;;;;;;;;;;;;;;;17.12;100.00;99819.03;1737636;82;20083;-73
2022/08/08 02:59:20;;;;;;;;;;;;;;;17.11;100.00;99823.77;1740919;82;20160;-73
2022/08/08 03:02:13;;;;;;;;;;;;;;;17.04;100.00;99823.56;1729501;82;20085;-72
2022/08/08 03:05:07;;;;;;;;;;;;;;;16.95;100.00;99827.06;1679866;84;20114;-73
2022/08/08 03:07:51;;;;;;;;;;;;;;;16.88;100.00;99826.84;1713369;83;20152;-73
2022/08/08 03:10:44;;;;;;;;;;;;;;;16.84;100.00;99830.09;1712862;83;22183;-73
2022/08/08 03:13:45;;;;;;;;;;;;;;;16.83;100.00;99829.86;1689738;84;20150;-72
2022/08/08 03:16:36;;;;;;;;;;;;;;;16.80;100.00;99829.98;1713586;83;20117;-72
2022/08/08 03:19:32;;;;;;;;;;;;;;;16.79;100.00;99834.49;1713008;83;20433;-73
2022/08/08 03:22:02;;;;;;;;;;;;;;;16.77;100.00;99836.23;1657262;86;20437;-72
2022/08/08 03:24:38;;;;;;;;;;;;;;;16.73;100.00;99833.15;1658261;86;21256;-75
2022/08/08 03:27:34;;;;;;;;;;;;;;;16.73;100.00;99834.53;1658680;84;20405;-78
2022/08/08 03:30:07;;;;;;;;;;;;;;;16.73;100.00;99838.70;1691638;84;20118;-78
2022/08/08 03:35:22;;;;;;;;;;;;;;;16.72;100.00;99839.85;1713558;84;20081;-79
2022/08/08 03:37:53;;;;;;;;;;;;;;;16.69;100.00;99837.78;1713229;83;20449;-75
2022/08/08 03:40:21;;;;;;;;;;;;;;;16.72;100.00;99846.78;1713250;84;20098;-76
2022/08/08 03:42:57;;;;;;;;;;;;;;;16.71;100.00;99848.75;1713021;83;20093;-80
2022/08/08 03:45:24;;;;;;;;;;;;;;;16.73;100.00;99842.85;1712622;83;20110;-78
2022/08/08 03:48:06;;;;;;;;;;;;;;;16.77;100.00;99845.12;1713203;84;20101;-73
2022/08/08 03:50:38;;;;;;;;;;;;;;;16.82;100.00;99851.81;1713454;84;21134;-73
2022/08/08 03:53:10;;;;;;;;;;;;;;;16.82;100.00;99851.23;1712789;83;20086;-72
2022/08/08 03:55:48;;;;;;;;;;;;;;;16.82;100.00;99852.62;1713474;83;20457;-75
2022/08/08 03:58:23;;;;;;;;;;;;;;;16.86;100.00;99855.50;1704757;83;20422;-74
2022/08/08 04:01:04;;;;;;;;;;;;;;;16.89;100.00;99858.97;1733655;82;20083;-73
2022/08/08 04:03:34;;;;;;;;;;;;;;;16.92;100.00;99865.77;1733685;83;21162;-75
2022/08/08 04:06:05;;;;;;;;;;;;;;;16.89;100.00;99865.89;1733765;83;20118;-75
2022/08/08 04:08:31;;;;;;;;;;;;;;;16.85;100.00;99864.98;1733579;83;20083;-74
2022/08/08 04:10:58;;;;;;;;;;;;;;;16.83;100.00;99866.72;1714684;83;20434;-75
2022/08/08 04:13:24;;;;;;;;;;;;;;;16.82;100.00;99876.77;1715017;83;20154;-73
2022/08/08 04:15:52;;;;;;;;;;;;;;;16.85;100.00;99876.07;1733551;82;21222;-73
2022/08/08 04:18:19;;;;;;;;;;;;;;;16.89;100.00;99871.44;1733205;83;20133;-74
2022/08/08 04:20:46;;;;;;;;;;;;;;;16.93;100.00;99870.97;1724148;83;20087;-74
2022/08/08 04:23:12;;;;;;;;;;;;;;;16.97;100.00;99869.69;1708154;83;20443;-74
2022/08/08 04:25:39;;;;;;;;;;;;;;;16.96;100.00;99866.69;1704573;84;20117;-74
2022/08/08 04:28:05;;;;;;;;;;;;;;;16.93;100.00;99868.20;1704387;84;21136;-74
2022/08/08 04:30:32;;;;;;;;;;;;;;;16.94;100.00;99869.81;1704535;84;20085;-74
2022/08/08 04:32:58;;;;;;;;;;;;;;;16.92;100.00;99869.94;1704409;84;20444;-74
2022/08/08 04:35:26;;;;;;;;;;;;;;;16.91;100.00;99871.91;1702799;83;20407;-75
2022/08/08 04:37:53;;;;;;;;;;;;;;;16.90;100.00;99872.25;1704226;84;20113;-74
2022/08/08 04:40:21;;;;;;;;;;;;;;;16.91;100.00;99874.67;1704385;84;21128;-75
2022/08/08 04:42:50;;;;;;;;;;;;;;;16.93;100.00;99872.94;1704319;83;20105;-77
2022/08/08 04:45:17;;;;;;;;;;;;;;;16.95;100.00;99879.75;1709727;83;20465;-85
2022/08/08 04:47:44;;;;;;;;;;;;;;;16.97;100.00;99878.82;1709457;83;20082;-85
2022/08/08 04:50:11;;;;;;;;;;;;;;;16.98;100.00;99884.59;1702187;84;20432;-77
2022/08/08 04:52:38;;;;;;;;;;;;;;;16.99;100.00;99882.05;1704199;84;21109;-78
2022/08/08 04:55:07;;;;;;;;;;;;;;;17.00;100.00;99880.89;1704232;84;20117;-75
2022/08/08 04:57:35;;;;;;;;;;;;;;;17.05;100.00;99876.48;1704234;84;20160;-72
2022/08/08 05:00:03;;;;;;;;;;;;;;;17.09;100.00;99871.86;1704250;84;20117;-74
2022/08/08 05:02:31;;;;;;;;;;;;;;;17.13;100.00;99879.70;1704293;83;20121;-77
2022/08/08 05:04:58;;;;;;;;;;;;;;;17.15;100.00;99878.77;1704366;83;21535;-80
2022/08/08 05:07:26;;;;;;;;;;;;;;;17.20;100.00;99881.88;1705128;82;20118;-79
2022/08/08 05:09:53;;;;;;;;;;;;;;;17.25;100.00;99876.09;1733612;83;20115;-81
2022/08/08 05:12:19;;;;;;;;;;;;;;;17.33;100.00;99873.71;1733602;81;20083;-79
2022/08/08 05:14:46;;;;;;;;;;;;;;;17.36;100.00;99874.98;1733593;83;20127;-81
2022/08/08 05:17:12;;;;;;;;;;;;;;;17.40;100.00;99875.88;1733609;83;21139;-79
2022/08/08 05:19:40;;;;;;;;;;;;;;;17.45;100.00;99877.83;1733388;83;20800;-75
2022/08/08 05:22:07;;;;;;;;;;;;;;;17.49;100.00;99884.87;1733480;83;20086;-79
2022/08/08 05:24:35;;;;;;;;;;;;;;;17.51;100.00;99888.09;1733454;83;20154;-79
2022/08/08 05:27:02;;;;;;;;;;;;;;;17.49;100.00;99896.77;1733476;83;20094;-73
2022/08/08 05:29:29;;;;;;;;;;;;;;;17.52;100.00;99899.42;1733418;83;21088;-74
2022/08/08 05:31:56;;;;;;;;;;;;;;;17.54;100.00;99892.94;1733548;82;20487;-76
2022/08/08 05:34:38;;;;;;;;;;;;;;;17.58;100.00;99898.02;1733422;83;20161;-76
2022/08/08 05:37:05;;;;;;;;;;;;;;;17.57;100.00;99901.95;1689899;82;20187;-79
2022/08/08 05:39:32;;;;;;;;;;;;;;;17.56;100.00;99900.91;1733717;83;20141;-82
2022/08/08 05:41:58;;;;;;;;;;;;;;;17.54;100.00;99899.88;1733406;83;21239;-78
2022/08/08 05:44:28;;;;;;;;;;;;;;;17.54;100.00;99905.43;1714679;83;20490;-81
2022/08/08 05:46:55;;;;;;;;;;;;;;;17.54;100.00;99902.66;1733870;81;20094;-80
2022/08/08 05:49:27;;;;;;;;;;;;;;;17.54;100.00;99913.77;1733735;83;20115;-82
2022/08/08 05:51:54;;;;;;;;;;;;;;;17.54;100.00;99913.77;1732853;82;20146;-78
2022/08/08 05:54:25;;;;;;;;;;;;;;;17.53;100.00;99919.66;1738692;82;20134;-77
2022/08/08 05:56:54;;;;;;;;;;;;;;;17.52;100.00;99920.83;1722231;82;20087;-77
2022/08/08 05:59:25;;;;;;;;;;;;;;;17.54;100.00;99921.28;1709954;84;20169;-74
2022/08/08 06:01:54;;;;;;;;;;;;;;;17.55;100.00;99917.34;1712841;83;20097;-78
2022/08/08 06:04:26;;;;;;;;;;;;;;;17.56;100.00;99914.21;1712275;83;20113;-76
2022/08/08 06:06:56;;;;;;;;;;;;;;;17.58;100.00;99916.63;1713310;83;21138;-77
2022/08/08 06:09:31;;;;;;;;;;;;;;;17.61;100.00;99918.13;1713000;84;20093;-78
2022/08/08 06:12:14;;;;;;;;;;;;;;;17.62;100.00;99923.91;1712460;83;20098;-76
2022/08/08 06:14:30;;;;;;;;;;;;;;;17.59;100.00;99923.22;1708957;83;20461;-77
2022/08/08 06:17:05;;;;;;;;;;;;;;;17.61;100.00;99925.06;1713295;84;20121;-75
2022/08/08 06:19:45;;;;;;;;;;;;;;;17.65;100.00;99922.39;1690359;84;20097;-78
2022/08/08 06:22:13;;;;;;;;;;;;;;;17.65;100.00;99922.39;1713265;82;20101;-75
2022/08/08 06:24:49;;;;;;;;;;;;;;;17.67;100.00;99924.27;1690278;84;20480;-73
2022/08/08 06:27:28;;;;;;;;;;;;;;;17.69;100.00;99924.14;1713155;83;20105;-72
2022/08/08 06:30:08;;;;;;;;;;;;;;;17.74;100.00;99927.24;1712170;83;20105;-73
2022/08/08 06:32:42;;;;;;;;;;;;;;;17.75;100.00;99924.11;1712446;83;21173;-74
2022/08/08 06:35:14;;;;;;;;;;;;;;;17.77;100.00;99929.31;1714125;82;20134;-73
2022/08/08 06:37:53;;;;;;;;;;;;;;;17.79;100.00;99928.38;1719780;82;20540;-73
2022/08/08 06:40:24;;;;;;;;;;;;;;;17.80;100.00;99935.55;1728729;82;20462;-76
2022/08/08 06:43:02;;;;;;;;;;;;;;;17.82;100.00;99933.22;1741881;82;20115;-76
2022/08/08 06:45:37;;;;;;;;;;;;;;;17.83;100.00;99932.64;1742324;82;21266;-73
2022/08/08 06:48:09;;;;;;;;;;;;;;;17.86;100.00;99933.31;1742179;82;20436;-77
2022/08/08 06:50:38;;;;;;;;;;;;;;;17.86;100.00;99933.31;1742580;82;20431;-73
2022/08/08 06:53:10;;;;;;;;;;;;;;;17.87;100.00;99928.80;1742538;82;20942;-76
2022/08/08 06:55:43;;;;;;;;;;;;;;;17.89;100.00;99936.77;1742988;82;20079;-81
2022/08/08 06:58:17;;;;;;;;;;;;;;;17.91;100.00;99938.00;1743289;82;21261;-82
2022/08/08 07:00:52;;;;;;;;;;;;;;;17.95;100.00;99936.13;1742613;82;20095;-81
2022/08/08 07:03:39;;;;;;;;;;;;;;;17.98;100.00;99932.64;1742661;82;20095;-85
2022/08/08 07:06:12;;;;;;;;;;;;;;;18.03;100.00;99941.30;1742582;82;20084;-78
2022/08/08 07:08:42;;;;;;;;;;;;;;;18.07;100.00;99935.26;1742622;82;20147;-76
2022/08/08 07:11:09;;;;;;;;;;;;;;;18.14;100.00;99939.61;1742399;82;21160;-78
2022/08/08 07:13:38;;;;;;;;;;;;;;;18.20;100.00;99939.58;1741846;82;20108;-81
2022/08/08 07:16:14;;;;;;;;;;;;;;;18.26;100.00;99942.90;1742568;82;20194;-84
2022/08/08 07:19:05;;;;;;;;;;;;;;;18.31;100.00;99942.63;1742609;82;20115;-75
2022/08/08 07:21:54;;;;;;;;;;;;;;;18.29;100.00;99941.60;1742515;82;20115;-77
2022/08/08 07:24:31;;;;;;;;;;;;;;;18.33;100.00;99948.06;1736934;82;20098;-82
2022/08/08 07:27:01;;;;;;;;;;;;;;;18.36;100.00;99950.13;1686270;84;20124;-78
2022/08/08 07:29:30;;;;;;;;;;;;;;;18.40;100.00;99946.86;1651867;84;20155;-84
2022/08/08 07:32:05;;;;;;;;;;;;;;;18.41;100.00;99944.88;1686125;85;20104;-87
2022/08/08 07:34:37;;;;;;;;;;;;;;;18.41;100.00;99954.03;1675316;84;20126;-86
2022/08/08 07:37:08;;;;;;;;;;;;;;;18.42;100.00;99954.25;1684888;84;20112;-76
2022/08/08 07:39:37;;;;;;;;;;;;;;;18.47;100.00;99951.20;1697123;83;20102;-78
2022/08/08 07:42:06;;;;;;;;;;;;;;;18.54;100.00;99948.35;1697102;84;20119;-77
2022/08/08 07:44:37;;;;;;;;;;;;;;;18.60;100.00;99948.30;1683497;84;20153;-76
2022/08/08 07:47:04;;;;;;;;;;;;;;;18.68;100.00;99955.11;1705483;83;20440;-78
2022/08/08 07:49:38;;;;;;;;;;;;;;;18.80;100.00;99954.20;1704917;83;21143;-79
2022/08/08 07:52:06;;;;;;;;;;;;;;;18.90;100.00;99957.81;1705027;83;20323;-81
2022/08/08 07:54:52;;;;;;;;;;;;;;;18.91;100.00;99959.43;1712526;82;20444;-79
2022/08/08 07:57:44;;;;;;;;;;;;;;;18.94;100.00;99955.92;1711690;83;20102;-79
2022/08/08 08:00:19;;;;;;;;;;;;;;;18.98;100.00;99957.41;1709181;84;20129;-76
2022/08/08 08:03:13;;;;;;;;;;;;;;;19.00;100.00;99960.63;1713198;83;20196;-80
2022/08/08 08:05:44;;;;;;;;;;;;;;;19.00;100.00;99968.39;1714450;83;20134;-78
2022/08/08 08:08:22;;;;;;;;;;;;;;;18.97;100.00;99973.28;1713122;84;20082;-75
2022/08/08 08:10:56;;;;;;;;;;;;;;;19.00;100.00;99964.22;1709358;83;20369;-75
2022/08/08 08:13:36;;;;;;;;;;;;;;;19.06;100.00;99957.17;1713162;83;20113;-75
2022/08/08 08:16:15;;;;;;;;;;;;;;;19.12;100.00;99966.86;1691590;84;20148;-72
2022/08/08 08:18:49;;;;;;;;;;;;;;;19.20;100.00;99967.83;1712913;83;20140;-84
2022/08/08 08:21:20;;;;;;;;;;;;;;;19.24;100.00;99970.11;1713633;84;20085;-78
2022/08/08 08:23:49;;;;;;;;;;;;;;;19.23;100.00;99971.86;1713231;84;20568;-75
2022/08/08 08:26:24;;;;;;;;;;;;;;;19.20;100.00;99976.76;1690758;84;20106;-78
2022/08/08 08:28:59;;;;;;;;;;;;;;;19.15;100.00;99976.45;1713199;83;20503;-78
2022/08/08 08:31:29;;;;;;;;;;;;;;;19.07;100.00;99975.48;1713454;83;20097;-81
2022/08/08 08:34:01;;;;;;;;;;;;;;;19.00;100.00;99982.89;1691436;84;20118;-77
2022/08/08 08:36:30;;;;;;;;;;;;;;;18.99;100.00;99983.47;1713378;83;20121;-77
2022/08/08 08:39:04;;;;;;;;;;;;;;;18.98;100.00;99983.83;1712762;83;20121;-77
2022/08/08 08:41:46;;;;;;;;;;;;;;;18.99;100.00;99980.69;1711677;83;20894;-78
2022/08/08 08:44:17;;;;;;;;;;;;;;;19.04;100.00;99990.15;1713088;83;20129;-73
2022/08/08 08:46:49;;;;;;;;;;;;;;;19.10;100.00;99988.67;1713129;84;20110;-80
2022/08/08 08:49:18;;;;;;;;;;;;;;;19.13;100.00;99990.73;1714487;83;20126;-75
2022/08/08 08:51:47;;;;;;;;;;;;;;;19.09;100.00;99992.63;1714558;83;20133;-73
2022/08/08 08:54:20;;;;;;;;;;;;;;;19.16;100.00;99991.17;1713273;83;20845;-72
2022/08/08 08:56:48;;;;;;;;;;;;;;;19.23;100.00;99998.30;1712870;83;20128;-73
2022/08/08 08:59:21;;;;;;;;;;;;;;;19.30;100.00;99997.07;1712710;83;20421;-73
2022/08/08 09:01:56;;;;;;;;;;;;;;;19.33;100.00;99988.80;1706596;83;20089;-73
2022/08/08 09:04:34;;;;;;;;;;;;;;;19.33;100.00;99990.19;1704263;83;20105;-83
2022/08/08 09:07:05;;;;;;;;;;;;;;;19.31;100.00;99993.12;1709587;83;21147;-75
2022/08/08 09:09:36;;;;;;;;;;;;;;;19.32;100.00;99999.71;1686303;84;20452;-80
2022/08/08 09:12:11;;;;;;;;;;;;;;;19.39;100.00;99989.33;1704278;83;20088;-78
2022/08/08 09:14:39;;;;;;;;;;;;;;;19.48;100.00;99980.77;1705036;83;20201;-73
2022/08/08 09:17:10;;;;;;;;;;;;;;;19.62;100.00;99983.30;1686301;84;20152;-73
2022/08/08 09:19:40;;;;;;;;;;;;;;;19.78;100.00;99979.83;1704167;84;20089;-73
2022/08/08 09:22:16;;;;;;;;;;;;;;;19.85;100.00;99977.78;1704757;83;20120;-76
2022/08/08 09:24:45;;;;;;;;;;;;;;;19.91;100.00;99983.86;1704564;83;20440;-76
2022/08/08 09:27:18;;;;;;;;;;;;;;;20.02;100.00;99982.90;1704247;83;20116;-77
2022/08/08 09:30:07;;;;;;;;;;;;;;;20.11;100.00;99984.06;1704502;83;20424;-72
2022/08/08 09:32:50;;;;;;;;;;;;;;;20.19;100.00;99975.25;1704231;83;20125;-83
2022/08/08 09:35:24;;;;;;;;;;;;;;;20.27;100.00;99976.38;1701523;84;20096;-77
2022/08/08 09:38:01;;;;;;;;;;;;;;;20.35;100.00;99978.12;1687596;84;20157;-76
2022/08/08 09:40:33;;;;;;;;;;;;;;;20.36;100.00;99974.16;1689561;84;20118;-76
2022/08/08 09:43:33;;;;;;;;;;;;;;;20.31;100.00;99977.83;1689255;84;20468;-75
2022/08/08 09:46:07;;;;;;;;;;;;;;;20.30;100.00;99978.42;1689257;84;20478;-76
2022/08/08 09:48:44;;;;;;;;;;;;;;;20.35;100.00;99978.12;1689097;84;20090;-74
2022/08/08 09:51:16;;;;;;;;;;;;;;;20.32;100.00;99966.90;1689483;84;20085;-75
2022/08/08 09:53:49;;;;;;;;;;;;;;;20.29;100.00;99973.22;1689273;85;20153;-75
2022/08/08 09:56:21;;;;;;;;;;;;;;;20.27;100.00;99966.62;1689275;84;20327;-73
2022/08/08 09:58:57;;;;;;;;;;;;;;;20.27;100.00;99970.80;1689458;85;21966;-75
2022/08/08 10:01:33;;;;;;;;;;;;;;;20.25;100.00;99964.79;1687400;84;20110;-75
2022/08/08 10:04:05;;;;;;;;;;;;;;;20.29;100.00;99966.25;1687761;83;20139;-73
2022/08/08 10:06:43;;;;;;;;;;;;;;;20.38;100.00;99973.81;1719482;83;20502;-74
2022/08/08 10:09:11;;;;;;;;;;;;;;;20.40;100.00;99970.06;1716359;83;20459;-74
2022/08/08 10:11:49;;;;;;;;;;;;;;;20.39;100.00;99976.23;1685689;85;21124;-73
2022/08/08 10:14:19;;;;;;;;;;;;;;;20.40;100.00;99984.81;1689235;84;20149;-80
2022/08/08 10:16:49;;;;;;;;;;;;;;;20.41;100.00;99980.05;1689454;85;20101;-81
2022/08/08 10:19:20;;;;;;;;;;;;;;;20.38;100.00;99979.39;1689192;83;20097;-81
2022/08/08 10:21:49;;;;;;;;;;;;;;;20.32;100.00;99980.84;1689264;84;20116;-82
2022/08/08 10:24:18;;;;;;;;;;;;;;;20.38;100.00;99980.78;1688820;85;20230;-75
2022/08/08 10:26:57;;;;;;;;;;;;;;;20.39;100.00;99983.20;1689295;84;20141;-77
2022/08/08 10:29:42;;;;;;;;;;;;;;;20.41;100.00;99986.42;1672197;85;20117;-76
2022/08/08 10:34:59;;;;;;;;;;;;;;;20.48;100.00;99982.16;1689435;84;20102;-81
2022/08/08 10:37:36;;;;;;;;;;;;;;;20.50;100.00;99979.80;1689547;84;21130;-75
2022/08/08 10:40:23;;;;;;;;;;;;;;;20.52;100.00;99978.84;1689318;84;20141;-75
2022/08/08 10:42:58;;;;;;;;;;;;;;;20.50;100.00;99982.00;1689414;84;20420;-76
2022/08/08 10:45:29;;;;;;;;;;;;;;;20.52;100.00;99976.05;1689239;84;20129;-80
2022/08/08 10:48:00;;;;;;;;;;;;;;;20.54;100.00;99982.06;1689403;84;20428;-81
2022/08/08 10:50:33;;;;;;;;;;;;;;;20.49;100.00;99980.39;1689408;83;21156;-78
2022/08/08 10:53:10;;;;;;;;;;;;;;;20.44;100.00;99977.91;1689469;83;20109;-81
2022/08/08 10:55:45;;;;;;;;;;;;;;;20.43;100.00;99973.50;1689510;84;20078;-78
2022/08/08 10:58:20;;;;;;;;;;;;;;;20.42;100.00;99969.91;1672414;85;20122;-90
2022/08/08 11:00:48;;;;;;;;;;;;;;;20.41;100.00;99972.48;1689517;83;20118;-85
2022/08/08 11:03:20;;;;;;;;;;;;;;;20.40;100.00;99979.23;1707868;83;21274;-84
2022/08/08 11:05:51;;;;;;;;;;;;;;;20.42;100.00;99967.12;1721637;83;20218;-81
2022/08/08 11:08:32;;;;;;;;;;;;;;;20.47;100.00;99964.61;1697336;82;20181;-76
2022/08/08 11:11:03;;;;;;;;;;;;;;;20.52;100.00;99964.89;1725036;83;20097;-79
2022/08/08 11:13:44;;;;;;;;;;;;;;;20.56;100.00;99958.20;1724867;83;20164;-79
2022/08/08 11:16:22;;;;;;;;;;;;;;;20.64;100.00;99963.31;1696123;84;20130;-83
2022/08/08 11:18:53;;;;;;;;;;;;;;;20.70;100.00;99960.42;1693224;85;20090;-76
2022/08/08 11:21:23;;;;;;;;;;;;;;;20.72;100.00;99962.25;1724934;83;20121;-73
2022/08/08 11:23:52;;;;;;;;;;;;;;;20.79;100.00;99959.58;1725019;83;20521;-72
2022/08/08 11:26:21;;;;;;;;;;;;;;;20.83;100.00;99958.20;1724968;83;20113;-72
2022/08/08 11:28:49;;;;;;;;;;;;;;;20.90;100.00;99966.10;1725091;83;21331;-78
2022/08/08 11:31:26;;;;;;;;;;;;;;;20.99;100.00;99958.27;1725348;83;20140;-75
2022/08/08 11:34:02;;;;;;;;;;;;;;;21.05;100.00;99958.16;1724968;83;20401;-78
2022/08/08 11:36:33;;;;;;;;;;;;;;;21.04;100.00;99957.95;1725039;83;20089;-77
2022/08/08 11:39:09;;;;;;;;;;;;;;;21.07;100.00;99958.59;1724539;83;20452;-83
2022/08/08 11:41:42;;;;;;;;;;;;;;;21.09;100.00;99966.00;1724933;83;21314;-77
2022/08/08 11:44:13;;;;;;;;;;;;;;;21.05;100.00;99957.36;1724874;83;20472;-78
2022/08/08 11:46:43;;;;;;;;;;;;;;;21.06;100.00;99958.38;1725035;83;20460;-82
2022/08/08 11:49:13;;;;;;;;;;;;;;;21.08;100.00;99958.81;1723698;82;20169;-76
2022/08/08 11:51:41;;;;;;;;;;;;;;;21.12;100.00;99956.66;1723904;83;20457;-82
2022/08/08 11:54:09;;;;;;;;;;;;;;;21.17;100.00;99964.12;1724066;83;21830;-79
2022/08/08 11:56:44;;;;;;;;;;;;;;;21.21;100.00;99957.19;1724351;83;20420;-84
2022/08/08 11:59:17;;;;;;;;;;;;;;;21.22;100.00;99958.24;1723722;83;20461;-80
2022/08/08 12:01:45;;;;;;;;;;;;;;;21.24;100.00;99955.87;1699167;83;20160;-76
2022/08/08 12:04:16;;;;;;;;;;;;;;;21.25;100.00;99953.30;1724978;83;20085;-80
2022/08/08 12:06:48;;;;;;;;;;;;;;;21.32;100.00;99953.99;1717648;83;21290;-76
2022/08/08 12:09:16;;;;;;;;;;;;;;;21.33;100.00;99952.81;1724864;83;20093;-74
2022/08/08 12:14:22;;;;;;;;;;;;;;;21.54;100.00;99946.67;1689166;83;20128;-75
2022/08/08 12:16:53;;;;;;;;;;;;;;;21.65;100.00;99949.01;1724929;83;20440;-72
2022/08/08 12:19:21;;;;;;;;;;;;;;;21.69;100.00;99940.88;1725019;83;21833;-76
2022/08/08 12:21:54;;;;;;;;;;;;;;;21.72;99.59;99942.11;1724204;83;20113;-78
2022/08/08 12:24:25;;;;;;;;;;;;;;;21.73;99.32;99937.54;1724664;83;20408;-75
2022/08/08 12:26:53;;;;;;;;;;;;;;;21.77;100.00;99939.58;1725120;83;20152;-86
2022/08/08 12:29:34;;;;;;;;;;;;;;;21.81;99.74;99939.02;1724968;83;20109;-72
2022/08/08 12:32:16;;;;;;;;;;;;;;;21.83;98.02;99934.66;1724191;83;20125;-75
2022/08/08 12:34:57;;;;;;;;;;;;;;;21.81;97.65;99940.42;1724756;83;20089;-74
2022/08/08 12:37:25;;;;;;;;;;;;;;;21.79;98.15;99944.19;1699064;83;20077;-74
2022/08/08 12:40:00;;;;;;;;;;;;;;;21.72;98.21;99935.93;1722849;83;20421;-71
2022/08/08 12:42:36;;;;;;;;;;;;;;;21.73;98.78;99933.34;1724978;83;20093;-73
2022/08/08 12:45:12;;;;;;;;;;;;;;;21.78;98.04;99938.39;1717814;83;20715;-73
2022/08/08 12:47:38;;;;;;;;;;;;;;;21.82;97.62;99933.05;1724543;83;20128;-70
2022/08/08 12:50:05;;;;;;;;;;;;;;;21.85;97.14;99938.47;1724444;83;20097;-73
2022/08/08 12:52:38;;;;;;;;;;;;;;;21.82;97.57;99937.24;1724700;83;20692;-73
2022/08/08 12:55:15;;;;;;;;;;;;;;;21.77;97.58;99940.97;1725166;83;20109;-71
2022/08/08 12:57:45;;;;;;;;;;;;;;;21.67;97.94;99948.84;1699083;83;20425;-73
2022/08/08 13:00:09;;;;;;;;;;;;;;;21.58;98.38;99943.33;1724736;83;20137;-73
2022/08/08 13:02:41;;;;;;;;;;;;;;;21.53;98.56;99941.68;1723815;83;20141;-71
2022/08/08 13:05:23;;;;;;;;;;;;;;;21.46;98.61;99941.59;1724868;83;20117;-71
2022/08/08 13:07:55;;;;;;;;;;;;;;;21.41;99.12;99946.91;1689556;83;20097;-71
2022/08/08 13:10:36;;;;;;;;;;;;;;;21.42;100.00;99946.32;1724038;83;20144;-76
2022/08/08 13:13:00;;;;;;;;;;;;;;;21.48;99.99;99945.39;1724531;83;20120;-75
2022/08/08 13:15:28;;;;;;;;;;;;;;;21.47;99.88;99944.59;1725211;83;20151;-76
2022/08/08 13:17:55;;;;;;;;;;;;;;;21.49;100.00;99945.61;1724936;83;20405;-71
2022/08/08 13:20:22;;;;;;;;;;;;;;;21.51;99.60;99938.46;1724263;83;20109;-72
2022/08/08 13:22:49;;;;;;;;;;;;;;;21.64;99.54;99946.81;1724812;83;21140;-72
2022/08/08 13:25:17;;;;;;;;;;;;;;;21.78;99.28;99934.20;1724785;83;20160;-71
2022/08/08 13:27:44;;;;;;;;;;;;;;;21.89;97.93;99937.33;1724902;83;20097;-71
2022/08/08 13:30:11;;;;;;;;;;;;;;;21.92;96.48;99940.75;1725163;83;20112;-71